createdAt,value
2017-12-21T00:00:05.307Z,6.60
2017-12-21T00:02:33.613Z,6.60
2017-12-21T00:05:01.136Z,6.60
2017-12-21T00:07:29.398Z,6.60
2017-12-21T00:09:56.907Z,6.60
2017-12-21T00:12:24.406Z,6.70
2017-12-21T00:14:51.939Z,6.60
2017-12-21T00:17:19.447Z,6.60
2017-12-21T00:19:47.730Z,6.70
2017-12-21T00:22:16.001Z,6.60
2017-12-21T00:24:44.271Z,6.70
2017-12-21T00:27:12.593Z,6.70
2017-12-21T00:29:40.086Z,6.70
2017-12-21T00:32:07.597Z,6.70
2017-12-21T00:34:35.119Z,6.70
2017-12-21T00:37:02.609Z,6.70
2017-12-21T00:39:30.134Z,6.70
2017-12-21T00:41:58.419Z,6.70
2017-12-21T00:44:26.700Z,6.70
2017-12-21T00:46:54.220Z,6.70
2017-12-21T00:49:21.721Z,6.70
2017-12-21T00:51:49.309Z,6.70
2017-12-21T00:54:16.819Z,6.70
2017-12-21T00:56:44.346Z,6.70
2017-12-21T00:59:11.842Z,6.70
2017-12-21T01:01:40.119Z,6.70
2017-12-21T01:04:08.414Z,6.70
2017-12-21T01:06:35.918Z,6.70
2017-12-21T01:09:03.425Z,6.70
2017-12-21T01:11:31.682Z,6.70
2017-12-21T01:13:59.977Z,6.70
2017-12-21T01:16:28.247Z,6.70
2017-12-21T01:18:56.517Z,6.70
2017-12-21T01:21:24.791Z,6.70
2017-12-21T01:23:53.075Z,6.70
2017-12-21T01:26:21.334Z,6.80
2017-12-21T01:28:49.639Z,6.80
2017-12-21T01:31:17.154Z,6.80
2017-12-21T01:33:44.654Z,6.80
2017-12-21T01:36:12.166Z,6.80
2017-12-21T01:38:39.680Z,6.80
2017-12-21T01:41:07.244Z,6.80
2017-12-21T01:43:34.737Z,6.80
2017-12-21T01:46:02.268Z,6.80
2017-12-21T01:48:29.762Z,6.80
2017-12-21T01:50:58.038Z,6.90
2017-12-21T01:53:25.652Z,6.90
2017-12-21T01:55:53.178Z,6.90
2017-12-21T01:58:21.452Z,6.90
2017-12-21T02:00:49.710Z,7.00
2017-12-21T02:03:17.221Z,6.90
2017-12-21T02:05:44.730Z,6.90
2017-12-21T02:08:12.256Z,7.00
2017-12-21T02:10:39.772Z,7.00
2017-12-21T02:13:08.054Z,7.00
2017-12-21T02:15:36.305Z,7.00
2017-12-21T02:18:03.826Z,7.00
2017-12-21T02:20:31.714Z,7.00
2017-12-21T02:22:59.214Z,7.00
2017-12-21T02:25:26.721Z,7.00
2017-12-21T02:27:54.217Z,7.00
2017-12-21T02:30:22.499Z,7.00
2017-12-21T02:32:50.020Z,7.00
2017-12-21T02:35:17.525Z,7.00
2017-12-21T02:37:45.019Z,7.00
2017-12-21T02:40:12.551Z,7.00
2017-12-21T02:42:40.111Z,7.00
2017-12-21T02:45:07.631Z,7.00
2017-12-21T02:47:35.920Z,7.00
2017-12-21T02:50:03.507Z,7.00
2017-12-21T02:52:31.013Z,7.00
2017-12-21T02:54:58.520Z,7.00
2017-12-21T02:57:26.030Z,7.00
2017-12-21T02:59:53.530Z,7.00
2017-12-21T03:02:21.066Z,7.00
2017-12-21T03:04:49.329Z,7.00
2017-12-21T03:07:16.926Z,7.00
2017-12-21T03:09:44.435Z,7.00
2017-12-21T03:12:11.940Z,7.00
2017-12-21T03:14:39.511Z,7.10
2017-12-21T03:17:07.028Z,7.00
2017-12-21T03:19:34.551Z,7.10
2017-12-21T03:22:02.060Z,7.10
2017-12-21T03:24:30.338Z,7.10
2017-12-21T03:26:58.593Z,7.10
2017-12-21T03:29:26.307Z,7.10
2017-12-21T03:31:53.815Z,7.10
2017-12-21T03:34:21.429Z,7.10
2017-12-21T03:36:48.951Z,7.10
2017-12-21T03:39:17.222Z,7.10
2017-12-21T03:41:45.514Z,7.00
2017-12-21T03:44:13.010Z,7.10
2017-12-21T03:46:40.535Z,7.10
2017-12-21T03:49:08.046Z,7.00
2017-12-21T03:51:35.561Z,7.00
2017-12-21T03:54:03.073Z,7.00
2017-12-21T03:56:30.581Z,7.00
2017-12-21T03:58:58.127Z,7.10
2017-12-21T04:01:25.623Z,7.00
2017-12-21T04:03:53.173Z,7.10
2017-12-21T04:06:20.675Z,7.00
2017-12-21T04:08:48.963Z,7.00
2017-12-21T04:11:17.221Z,7.00
2017-12-21T04:13:45.540Z,7.00
2017-12-21T04:16:13.049Z,7.00
2017-12-21T04:18:40.565Z,7.00
2017-12-21T04:21:08.090Z,7.00
2017-12-21T04:23:36.354Z,7.00
2017-12-21T04:26:04.628Z,7.00
2017-12-21T04:28:32.139Z,7.00
2017-12-21T04:30:59.644Z,7.00
2017-12-21T04:33:27.943Z,7.00
2017-12-21T04:35:55.456Z,7.00
2017-12-21T04:38:22.963Z,7.00
2017-12-21T04:40:50.486Z,7.00
2017-12-21T04:43:18.006Z,7.00
2017-12-21T04:45:45.523Z,7.00
2017-12-21T04:48:13.786Z,7.00
2017-12-21T04:50:42.065Z,7.00
2017-12-21T04:53:10.351Z,7.00
2017-12-21T04:55:38.624Z,7.10
2017-12-21T04:58:06.920Z,7.00
2017-12-21T05:00:34.431Z,7.00
2017-12-21T05:03:01.940Z,7.00
2017-12-21T05:05:29.483Z,7.00
2017-12-21T05:07:57.755Z,7.00
2017-12-21T05:10:26.047Z,7.00
2017-12-21T05:12:53.541Z,7.00
2017-12-21T05:15:21.051Z,7.00
2017-12-21T05:17:49.330Z,7.00
2017-12-21T05:20:16.843Z,7.00
2017-12-21T05:22:44.372Z,7.00
2017-12-21T05:25:11.894Z,7.00
2017-12-21T05:27:40.185Z,7.00
2017-12-21T05:30:07.677Z,7.00
2017-12-21T05:32:35.180Z,7.00
2017-12-21T05:35:03.492Z,7.10
2017-12-21T05:37:31.014Z,7.00
2017-12-21T05:39:59.283Z,7.00
2017-12-21T05:42:26.792Z,7.00
2017-12-21T05:44:54.297Z,7.00
2017-12-21T05:47:21.793Z,7.00
2017-12-21T05:49:49.323Z,7.00
2017-12-21T05:52:17.601Z,7.00
2017-12-21T05:54:45.861Z,7.00
2017-12-21T05:57:14.139Z,7.00
2017-12-21T05:59:41.633Z,7.00
2017-12-21T06:02:09.153Z,7.00
2017-12-21T06:04:36.668Z,7.00
2017-12-21T06:07:04.175Z,7.00
2017-12-21T06:09:31.697Z,7.00
2017-12-21T06:11:59.204Z,7.00
2017-12-21T06:14:27.489Z,7.00
2017-12-21T06:16:55.745Z,7.00
2017-12-21T06:19:23.242Z,7.00
2017-12-21T06:21:50.759Z,7.00
2017-12-21T06:24:19.030Z,7.00
2017-12-21T06:26:46.555Z,7.00
2017-12-21T06:29:14.052Z,6.90
2017-12-21T06:31:41.582Z,6.90
2017-12-21T06:34:09.077Z,7.00
2017-12-21T06:36:37.338Z,7.00
2017-12-21T06:39:04.862Z,7.00
2017-12-21T06:41:32.366Z,6.90
2017-12-21T06:44:00.655Z,6.90
2017-12-21T06:46:28.932Z,6.90
2017-12-21T06:48:57.209Z,6.90
2017-12-21T06:51:25.484Z,6.90
2017-12-21T06:53:53.774Z,6.90
2017-12-21T06:56:21.265Z,6.90
2017-12-21T06:58:48.799Z,7.00
2017-12-21T07:01:16.356Z,7.00
2017-12-21T07:03:43.850Z,7.00
2017-12-21T07:06:11.471Z,7.00
2017-12-21T07:08:38.979Z,7.00
2017-12-21T07:11:06.497Z,7.00
2017-12-21T07:13:33.999Z,6.90
2017-12-21T07:16:01.531Z,6.90
2017-12-21T07:18:29.048Z,6.90
2017-12-21T07:20:57.315Z,6.90
2017-12-21T07:23:25.620Z,6.90
2017-12-21T07:25:53.127Z,6.90
2017-12-21T07:28:20.644Z,6.90
2017-12-21T07:30:48.195Z,6.90
2017-12-21T07:33:15.694Z,6.90
2017-12-21T07:35:43.207Z,6.90
2017-12-21T07:38:10.707Z,6.90
2017-12-21T07:40:38.245Z,6.90
2017-12-21T07:43:05.746Z,6.90
2017-12-21T07:45:34.028Z,6.90
2017-12-21T07:48:02.345Z,6.90
2017-12-21T07:50:29.843Z,6.90
2017-12-21T07:52:57.373Z,6.90
2017-12-21T07:55:24.882Z,6.90
2017-12-21T07:57:53.165Z,6.90
2017-12-21T08:00:21.503Z,6.90
2017-12-21T08:02:49.015Z,6.90
2017-12-21T08:05:16.575Z,6.90
2017-12-21T08:07:44.074Z,6.90
2017-12-21T08:10:11.596Z,6.90
2017-12-21T08:12:39.108Z,6.90
2017-12-21T08:15:06.711Z,7.00
2017-12-21T08:17:34.232Z,7.00
2017-12-21T08:20:01.725Z,6.90
2017-12-21T08:22:29.229Z,6.90
2017-12-21T08:24:56.725Z,7.00
2017-12-21T08:27:25.006Z,7.00
2017-12-21T08:29:52.503Z,7.00
2017-12-21T08:32:20.030Z,7.00
2017-12-21T08:34:47.541Z,7.00
2017-12-21T08:37:15.085Z,7.10
2017-12-21T08:39:42.596Z,7.00
2017-12-21T08:42:10.850Z,7.10
2017-12-21T08:44:38.355Z,7.10
2017-12-21T08:47:05.865Z,7.10
2017-12-21T08:49:34.159Z,7.10
2017-12-21T08:52:02.425Z,7.10
2017-12-21T08:54:30.706Z,7.10
2017-12-21T08:56:58.988Z,7.10
2017-12-21T08:59:27.269Z,7.10
2017-12-21T09:01:55.525Z,7.10
2017-12-21T09:04:23.777Z,7.10
2017-12-21T09:06:51.290Z,7.10
2017-12-21T09:09:18.856Z,7.20
2017-12-21T09:11:46.380Z,7.20
2017-12-21T09:14:14.632Z,7.20
2017-12-21T09:16:42.168Z,7.20
2017-12-21T09:19:09.661Z,7.20
2017-12-21T09:21:37.176Z,7.20
2017-12-21T09:24:04.695Z,7.20
2017-12-21T09:26:32.986Z,7.20
2017-12-21T09:29:00.560Z,7.20
2017-12-21T09:31:28.067Z,7.20
2017-12-21T09:33:55.585Z,7.20
2017-12-21T09:36:23.078Z,7.20
2017-12-21T09:38:50.583Z,7.20
2017-12-21T09:41:18.096Z,7.30
2017-12-21T09:43:46.354Z,7.30
2017-12-21T09:46:13.875Z,7.30
2017-12-21T09:48:41.386Z,7.30
2017-12-21T09:51:08.902Z,7.30
2017-12-21T09:53:36.403Z,7.30
2017-12-21T09:56:03.902Z,7.30
2017-12-21T09:58:31.434Z,7.30
2017-12-21T10:00:59.717Z,7.40
2017-12-21T10:03:28.007Z,7.40
2017-12-21T10:05:55.512Z,7.40
2017-12-21T10:08:23.127Z,7.40
2017-12-21T10:10:50.649Z,7.50
2017-12-21T10:13:18.264Z,7.50
2017-12-21T10:15:45.788Z,7.50
2017-12-21T10:18:14.052Z,7.60
2017-12-21T10:20:41.576Z,7.50
2017-12-21T10:23:09.090Z,7.50
2017-12-21T10:25:36.617Z,7.60
2017-12-21T10:28:05.649Z,7.60
2017-12-21T10:30:33.906Z,7.70
2017-12-21T10:33:02.185Z,7.60
2017-12-21T10:35:30.455Z,7.70
2017-12-21T10:37:58.742Z,7.70
2017-12-21T10:40:27.003Z,7.70
2017-12-21T10:42:54.526Z,7.70
2017-12-21T10:45:22.036Z,7.70
2017-12-21T10:47:50.294Z,7.70
2017-12-21T10:50:17.816Z,7.70
2017-12-21T10:52:45.324Z,7.70
2017-12-21T10:55:13.601Z,7.70
2017-12-21T10:57:41.857Z,7.70
2017-12-21T11:00:09.383Z,7.70
2017-12-21T11:02:36.892Z,7.70
2017-12-21T11:05:05.162Z,7.60
2017-12-21T11:07:33.433Z,7.70
2017-12-21T11:10:01.039Z,7.70
2017-12-21T11:12:28.567Z,7.60
2017-12-21T11:14:56.836Z,7.50
2017-12-21T11:17:25.115Z,7.50
2017-12-21T11:19:53.378Z,7.60
2017-12-21T11:22:21.701Z,7.60
2017-12-21T11:24:49.197Z,7.50
2017-12-21T11:27:16.693Z,7.60
2017-12-21T11:29:44.969Z,7.60
2017-12-21T11:32:12.475Z,7.60
2017-12-21T11:34:40.754Z,7.60
2017-12-21T11:37:08.255Z,7.60
2017-12-21T11:39:36.566Z,7.60
2017-12-21T11:42:04.070Z,7.60
2017-12-21T11:44:31.570Z,7.60
2017-12-21T11:46:59.086Z,7.60
2017-12-21T11:49:26.586Z,7.60
2017-12-21T11:51:54.147Z,7.60
2017-12-21T11:54:21.664Z,7.60
2017-12-21T11:56:49.199Z,7.60
2017-12-21T11:59:16.703Z,7.60
2017-12-21T12:01:44.202Z,7.60
2017-12-21T12:04:11.720Z,7.60
2017-12-21T12:06:39.460Z,7.60
2017-12-21T12:09:06.984Z,7.60
2017-12-21T12:11:34.498Z,7.60
2017-12-21T12:14:02.858Z,7.80
2017-12-21T12:16:31.126Z,7.70
2017-12-21T12:18:58.617Z,7.70
2017-12-21T12:21:26.197Z,7.70
2017-12-21T12:23:53.687Z,7.80
2017-12-21T12:26:21.203Z,7.70
2017-12-21T12:28:48.709Z,7.80
2017-12-21T12:31:16.367Z,7.80
2017-12-21T12:33:43.870Z,7.80
2017-12-21T12:36:12.254Z,7.90
2017-12-21T12:38:39.784Z,7.90
2017-12-21T12:41:08.065Z,7.90
2017-12-21T12:43:36.355Z,7.90
2017-12-21T12:46:03.849Z,7.90
2017-12-21T12:48:31.362Z,7.90
2017-12-21T12:50:59.637Z,7.90
2017-12-21T12:53:27.169Z,7.90
2017-12-21T12:55:55.450Z,6.60
2017-12-21T12:58:22.965Z,8.00
2017-12-21T13:00:50.482Z,7.90
2017-12-21T13:03:18.773Z,7.80
2017-12-21T13:05:46.361Z,7.90
2017-12-21T13:08:13.871Z,7.90
2017-12-21T13:10:42.148Z,7.80
2017-12-21T13:13:10.434Z,7.80
2017-12-21T13:15:38.712Z,7.80
2017-12-21T13:18:07.007Z,7.80
2017-12-21T13:20:34.528Z,7.80
2017-12-21T13:23:02.043Z,7.80
2017-12-21T13:25:29.533Z,7.80
2017-12-21T13:27:57.049Z,7.80
2017-12-21T13:30:24.548Z,7.80
2017-12-21T13:32:52.063Z,7.90
2017-12-21T13:35:19.597Z,7.90
2017-12-21T13:37:47.876Z,7.80
2017-12-21T13:40:16.172Z,7.80
2017-12-21T13:42:43.688Z,7.80
2017-12-21T13:45:11.212Z,7.90
2017-12-21T13:47:38.728Z,7.80
2017-12-21T13:50:07.013Z,7.80
2017-12-21T13:52:34.584Z,7.80
2017-12-21T13:55:02.101Z,7.80
2017-12-21T13:57:30.379Z,7.90
2017-12-21T13:59:57.892Z,7.80
2017-12-21T14:02:25.425Z,7.90
2017-12-21T14:04:52.935Z,7.90
2017-12-21T14:07:20.547Z,7.90
2017-12-21T14:09:48.069Z,7.90
2017-12-21T14:12:15.566Z,7.90
2017-12-21T14:14:43.132Z,7.90
2017-12-21T14:17:10.692Z,7.90
2017-12-21T14:19:38.215Z,7.90
2017-12-21T14:22:06.501Z,7.90
2017-12-21T14:24:34.787Z,7.90
2017-12-21T14:27:02.305Z,7.90
2017-12-21T14:29:29.840Z,7.90
2017-12-21T14:31:57.347Z,7.90
2017-12-21T14:34:25.623Z,7.90
2017-12-21T14:36:53.916Z,7.90
2017-12-21T14:39:21.424Z,7.90
2017-12-21T14:41:48.951Z,7.90
2017-12-21T14:44:16.513Z,7.90
2017-12-21T14:46:44.039Z,7.90
2017-12-21T14:49:11.533Z,7.90
2017-12-21T14:51:39.059Z,7.90
2017-12-21T14:54:07.337Z,7.90
2017-12-21T14:56:34.852Z,7.80
2017-12-21T14:59:02.369Z,7.80
2017-12-21T15:01:29.867Z,7.90
2017-12-21T15:03:57.378Z,7.90
2017-12-21T15:06:24.884Z,7.90
2017-12-21T15:08:52.432Z,7.80
2017-12-21T15:11:19.944Z,7.90
2017-12-21T15:13:47.459Z,7.90
2017-12-21T15:16:14.974Z,7.90
2017-12-21T15:18:42.474Z,7.90
2017-12-21T15:21:09.985Z,7.90
2017-12-21T15:23:37.499Z,7.90
2017-12-21T15:26:05.334Z,7.90
2017-12-21T15:28:32.841Z,7.90
2017-12-21T15:31:01.116Z,7.90
2017-12-21T15:33:29.408Z,7.80
2017-12-21T15:35:57.711Z,7.80
2017-12-21T15:38:25.231Z,7.80
2017-12-21T15:40:52.757Z,7.90
2017-12-21T15:43:20.296Z,7.90
2017-12-21T15:45:47.831Z,7.90
2017-12-21T15:48:15.353Z,7.90
2017-12-21T15:50:42.878Z,7.90
2017-12-21T15:53:10.401Z,7.80
2017-12-21T15:55:37.933Z,7.90
2017-12-21T15:58:06.208Z,7.80
2017-12-21T16:00:34.688Z,7.90
2017-12-21T16:03:02.293Z,7.80
2017-12-21T16:05:29.804Z,7.90
2017-12-21T16:07:57.503Z,7.90
2017-12-21T16:10:25.003Z,7.80
2017-12-21T16:12:52.529Z,7.80
2017-12-21T16:15:20.043Z,7.80
2017-12-21T16:17:48.344Z,7.90
2017-12-21T16:20:15.846Z,7.80
2017-12-21T16:22:43.352Z,7.90
2017-12-21T16:25:11.644Z,7.80
2017-12-21T16:27:39.148Z,7.80
2017-12-21T16:30:06.684Z,7.80
2017-12-21T16:32:34.192Z,7.80
2017-12-21T16:35:02.480Z,7.90
2017-12-21T16:37:30.739Z,7.90
2017-12-21T16:39:58.242Z,7.90
2017-12-21T16:42:25.745Z,7.90
2017-12-21T16:44:53.288Z,7.90
2017-12-21T16:47:20.902Z,7.90
2017-12-21T16:49:48.428Z,7.90
2017-12-21T16:52:16.708Z,7.90
2017-12-21T16:54:45.016Z,7.90
2017-12-21T16:57:12.536Z,7.90
2017-12-21T16:59:40.033Z,7.90
2017-12-21T17:02:07.590Z,7.90
2017-12-21T17:04:35.168Z,7.90
2017-12-21T17:07:02.686Z,7.90
2017-12-21T17:09:30.937Z,7.90
2017-12-21T17:11:58.451Z,7.90
2017-12-21T17:14:25.969Z,7.90
2017-12-21T17:16:53.630Z,7.90
2017-12-21T17:19:21.913Z,7.90
2017-12-21T17:21:50.212Z,7.80
2017-12-21T17:24:17.713Z,7.80
2017-12-21T17:26:45.213Z,7.90
2017-12-21T17:29:13.491Z,7.90
2017-12-21T17:31:41.784Z,7.90
2017-12-21T17:34:09.293Z,7.90
2017-12-21T17:36:36.789Z,7.90
2017-12-21T17:39:05.078Z,7.90
2017-12-21T17:41:32.570Z,7.80
2017-12-21T17:44:00.109Z,7.90
2017-12-21T17:46:27.620Z,7.90
2017-12-21T17:48:55.228Z,7.90
2017-12-21T17:51:22.726Z,7.90
2017-12-21T17:53:50.245Z,7.90
2017-12-21T17:56:17.768Z,7.90
2017-12-21T17:58:46.053Z,7.90
2017-12-21T18:01:13.570Z,7.90
2017-12-21T18:03:41.087Z,7.90
2017-12-21T18:06:08.598Z,7.90
2017-12-21T18:08:36.099Z,7.90
2017-12-21T18:11:03.645Z,7.90
2017-12-21T18:16:23.449Z,7.90
2017-12-21T18:18:50.968Z,7.90
2017-12-21T18:21:18.480Z,7.90
2017-12-21T18:23:45.998Z,7.90
2017-12-21T18:26:14.268Z,7.90
2017-12-21T18:28:41.876Z,7.90
2017-12-21T18:31:09.437Z,7.90
2017-12-21T18:33:36.981Z,7.90
2017-12-21T18:36:04.486Z,7.90
2017-12-21T18:38:31.991Z,7.90
2017-12-21T18:40:59.511Z,7.90
2017-12-21T18:43:27.034Z,7.90
2017-12-21T18:45:54.550Z,7.90
2017-12-21T18:48:22.832Z,7.90
2017-12-21T18:50:50.394Z,7.90
2017-12-21T18:53:18.669Z,7.90
2017-12-21T18:55:46.185Z,7.80
2017-12-21T18:58:13.694Z,7.90
2017-12-21T19:00:41.460Z,7.80
2017-12-21T19:03:08.988Z,7.80
2017-12-21T19:05:37.254Z,7.80
2017-12-21T19:08:04.793Z,7.80
2017-12-21T19:10:33.036Z,7.80
2017-12-21T19:13:00.557Z,7.70
2017-12-21T19:15:28.877Z,7.70
2017-12-21T19:17:56.401Z,7.70
2017-12-21T19:20:24.700Z,7.70
2017-12-21T19:22:52.209Z,7.70
2017-12-21T19:25:19.739Z,7.70
2017-12-21T19:27:47.260Z,7.70
2017-12-21T19:30:15.523Z,7.60
2017-12-21T19:32:43.038Z,7.60
2017-12-21T19:35:10.559Z,7.70
2017-12-21T19:37:38.854Z,7.70
2017-12-21T19:40:06.369Z,7.70
2017-12-21T19:42:33.911Z,7.70
2017-12-21T19:45:01.410Z,7.70
2017-12-21T19:47:28.919Z,7.70
2017-12-21T19:49:56.453Z,7.70
2017-12-21T19:52:23.998Z,7.70
2017-12-21T19:54:51.531Z,7.70
2017-12-21T19:57:19.803Z,7.70
2017-12-21T19:59:48.096Z,7.60
2017-12-21T20:02:15.608Z,7.60
2017-12-21T20:04:43.149Z,7.60
2017-12-21T20:07:10.654Z,7.60
2017-12-21T20:09:38.922Z,7.60
2017-12-21T20:12:06.458Z,7.50
2017-12-21T20:14:33.959Z,7.50
2017-12-21T20:17:01.478Z,7.50
2017-12-21T20:19:28.982Z,7.40
2017-12-21T20:21:56.572Z,7.40
2017-12-21T20:24:24.853Z,7.50
2017-12-21T20:26:52.367Z,7.40
2017-12-21T20:29:20.654Z,7.40
2017-12-21T20:31:48.181Z,7.40
2017-12-21T20:34:15.699Z,7.50
2017-12-21T20:36:43.214Z,7.40
2017-12-21T20:39:11.504Z,7.50
2017-12-21T20:41:39.012Z,7.50
2017-12-21T20:44:06.541Z,7.50
2017-12-21T20:46:34.048Z,7.50
2017-12-21T20:49:01.578Z,7.50
2017-12-21T20:51:29.103Z,7.60
2017-12-21T20:53:56.612Z,7.60
2017-12-21T20:56:24.139Z,7.60
2017-12-21T20:58:51.656Z,7.60
2017-12-21T21:01:19.951Z,7.60
2017-12-21T21:03:47.472Z,7.60
2017-12-21T21:06:15.016Z,7.60
2017-12-21T21:08:42.518Z,7.60
2017-12-21T21:11:10.037Z,7.60
2017-12-21T21:13:37.582Z,7.60
2017-12-21T21:16:05.100Z,7.70
2017-12-21T21:18:32.666Z,7.70
2017-12-21T21:21:00.194Z,7.70
2017-12-21T21:23:28.488Z,7.60
2017-12-21T21:25:56.754Z,7.70
2017-12-21T21:28:25.032Z,7.60
2017-12-21T21:30:53.319Z,7.60
2017-12-21T21:33:20.844Z,7.60
2017-12-21T21:35:48.380Z,7.60
2017-12-21T21:38:15.893Z,7.60
2017-12-21T21:40:43.410Z,7.60
2017-12-21T21:43:10.934Z,7.60
2017-12-21T21:45:38.486Z,7.60
2017-12-21T21:48:06.005Z,7.60
2017-12-21T21:50:34.253Z,7.60
2017-12-21T21:53:01.784Z,7.70
2017-12-21T21:55:29.307Z,7.60
2017-12-21T21:57:57.609Z,7.60
2017-12-21T22:00:25.177Z,7.60
2017-12-21T22:02:52.723Z,7.50
2017-12-21T22:05:20.232Z,7.60
2017-12-21T22:07:47.731Z,7.60
2017-12-21T22:10:16.032Z,7.60
2017-12-21T22:12:43.553Z,7.60
2017-12-21T22:15:11.855Z,7.60
2017-12-21T22:17:39.372Z,7.60
2017-12-21T22:20:07.704Z,7.60
2017-12-21T22:22:35.219Z,7.60
2017-12-21T22:25:03.495Z,7.60
2017-12-21T22:27:31.810Z,7.60
2017-12-21T22:29:59.310Z,7.50
2017-12-21T22:32:26.835Z,7.50
2017-12-21T22:34:54.368Z,7.50
2017-12-21T22:37:22.509Z,7.40
2017-12-21T22:39:50.123Z,7.40
2017-12-21T22:42:17.622Z,7.40
2017-12-21T22:44:45.142Z,7.40
2017-12-21T22:47:12.642Z,7.30
2017-12-21T22:49:40.176Z,7.30
2017-12-21T22:52:07.702Z,7.30
2017-12-21T22:54:35.241Z,7.30
2017-12-21T22:57:03.511Z,7.20
2017-12-21T22:59:31.802Z,7.20
2017-12-21T23:01:59.332Z,7.20
2017-12-21T23:04:26.854Z,7.20
2017-12-21T23:06:54.388Z,7.20
2017-12-21T23:09:21.900Z,7.10
2017-12-21T23:11:49.451Z,7.10
2017-12-21T23:14:16.969Z,7.10
2017-12-21T23:16:44.493Z,7.10
2017-12-21T23:19:12.820Z,7.10
2017-12-21T23:21:40.344Z,7.10
2017-12-21T23:24:07.866Z,7.10
2017-12-21T23:26:36.136Z,7.10
2017-12-21T23:29:03.669Z,7.10
2017-12-21T23:31:31.175Z,7.10
2017-12-21T23:33:59.484Z,7.10
2017-12-21T23:36:27.005Z,7.10
2017-12-21T23:38:54.510Z,7.10
2017-12-21T23:41:22.053Z,7.10
2017-12-21T23:43:49.555Z,7.10
2017-12-21T23:46:17.087Z,7.10
2017-12-21T23:48:44.654Z,7.10
2017-12-21T23:51:12.195Z,7.10
2017-12-21T23:53:40.461Z,7.00
2017-12-21T23:56:07.983Z,7.00
2017-12-21T23:58:35.499Z,7.00
